sensor_id;sensor_type;location;lat;lon;timestamp;P1;durP1;ratioP1;P2;durP2;ratioP2
26622;SDS011;14254;50.968;5.366;2022-11-27T00:00:23;15.18;;;5.38;;
26622;SDS011;14254;50.968;5.366;2022-11-27T00:02:49;18.83;;;5.13;;
26622;SDS011;14254;50.968;5.366;2022-11-27T00:05:15;24.73;;;5.78;;
26622;SDS011;14254;50.968;5.366;2022-11-27T00:07:40;15.32;;;4.82;;
26622;SDS011;14254;50.968;5.366;2022-11-27T00:10:06;23.90;;;4.97;;
26622;SDS011;14254;50.968;5.366;2022-11-27T00:12:32;20.52;;;4.70;;
26622;SDS011;14254;50.968;5.366;2022-11-27T00:14:59;20.42;;;6.28;;
26622;SDS011;14254;50.968;5.366;2022-11-27T00:17:24;17.45;;;5.40;;
26622;SDS011;14254;50.968;5.366;2022-11-27T00:19:50;21.10;;;5.10;;
26622;SDS011;14254;50.968;5.366;2022-11-27T00:22:16;18.60;;;5.45;;
26622;SDS011;14254;50.968;5.366;2022-11-27T00:24:42;16.42;;;4.43;;
26622;SDS011;14254;50.968;5.366;2022-11-27T00:27:07;17.77;;;5.00;;
26622;SDS011;14254;50.968;5.366;2022-11-27T00:29:33;13.50;;;4.63;;
26622;SDS011;14254;50.968;5.366;2022-11-27T00:31:59;20.33;;;4.80;;
26622;SDS011;14254;50.968;5.366;2022-11-27T00:34:25;18.60;;;5.38;;
26622;SDS011;14254;50.968;5.366;2022-11-27T00:36:50;19.48;;;6.00;;
26622;SDS011;14254;50.968;5.366;2022-11-27T00:39:16;24.27;;;8.40;;
26622;SDS011;14254;50.968;5.366;2022-11-27T00:41:42;19.75;;;5.65;;
26622;SDS011;14254;50.968;5.366;2022-11-27T00:44:07;20.30;;;5.22;;
26622;SDS011;14254;50.968;5.366;2022-11-27T00:46:33;25.38;;;6.57;;
26622;SDS011;14254;50.968;5.366;2022-11-27T00:49:00;30.83;;;6.85;;
26622;SDS011;14254;50.968;5.366;2022-11-27T00:51:28;15.90;;;6.10;;
26622;SDS011;14254;50.968;5.366;2022-11-27T00:53:54;19.73;;;5.85;;
26622;SDS011;14254;50.968;5.366;2022-11-27T00:56:24;21.17;;;8.50;;
26622;SDS011;14254;50.968;5.366;2022-11-27T00:58:52;16.05;;;4.80;;
26622;SDS011;14254;50.968;5.366;2022-11-27T01:01:19;27.17;;;7.85;;
26622;SDS011;14254;50.968;5.366;2022-11-27T01:03:46;26.65;;;7.40;;
26622;SDS011;14254;50.968;5.366;2022-11-27T01:06:13;17.20;;;6.90;;
26622;SDS011;14254;50.968;5.366;2022-11-27T01:08:39;21.20;;;6.63;;
26622;SDS011;14254;50.968;5.366;2022-11-27T01:11:05;17.92;;;7.53;;
26622;SDS011;14254;50.968;5.366;2022-11-27T01:13:33;23.08;;;8.63;;
26622;SDS011;14254;50.968;5.366;2022-11-27T01:16:01;22.27;;;8.48;;
26622;SDS011;14254;50.968;5.366;2022-11-27T01:18:29;22.60;;;7.95;;
26622;SDS011;14254;50.968;5.366;2022-11-27T01:20:55;30.95;;;8.07;;
26622;SDS011;14254;50.968;5.366;2022-11-27T01:23:21;24.92;;;7.65;;
26622;SDS011;14254;50.968;5.366;2022-11-27T01:25:47;17.63;;;7.35;;
26622;SDS011;14254;50.968;5.366;2022-11-27T01:28:14;19.23;;;7.00;;
26622;SDS011;14254;50.968;5.366;2022-11-27T01:30:40;15.98;;;6.70;;
26622;SDS011;14254;50.968;5.366;2022-11-27T01:33:06;19.77;;;7.35;;
26622;SDS011;14254;50.968;5.366;2022-11-27T01:35:32;23.48;;;7.07;;
26622;SDS011;14254;50.968;5.366;2022-11-27T01:37:58;20.75;;;7.97;;
26622;SDS011;14254;50.968;5.366;2022-11-27T01:40:24;16.00;;;7.88;;
26622;SDS011;14254;50.968;5.366;2022-11-27T01:42:50;19.80;;;7.15;;
26622;SDS011;14254;50.968;5.366;2022-11-27T01:45:17;20.92;;;6.75;;
26622;SDS011;14254;50.968;5.366;2022-11-27T01:47:45;16.77;;;7.38;;
26622;SDS011;14254;50.968;5.366;2022-11-27T01:50:28;21.00;;;6.90;;
26622;SDS011;14254;50.968;5.366;2022-11-27T01:52:59;23.92;;;7.20;;
26622;SDS011;14254;50.968;5.366;2022-11-27T01:55:34;14.40;;;6.20;;
26622;SDS011;14254;50.968;5.366;2022-11-27T01:58:11;18.13;;;6.80;;
26622;SDS011;14254;50.968;5.366;2022-11-27T02:00:42;19.27;;;5.93;;
26622;SDS011;14254;50.968;5.366;2022-11-27T02:03:07;19.50;;;6.15;;
26622;SDS011;14254;50.968;5.366;2022-11-27T02:05:33;14.65;;;6.35;;
26622;SDS011;14254;50.968;5.366;2022-11-27T02:08:01;16.52;;;5.88;;
26622;SDS011;14254;50.968;5.366;2022-11-27T02:10:44;18.00;;;5.80;;
26622;SDS011;14254;50.968;5.366;2022-11-27T02:13:25;12.95;;;4.95;;
26622;SDS011;14254;50.968;5.366;2022-11-27T02:21:20;10.35;;;4.32;;
26622;SDS011;14254;50.968;5.366;2022-11-27T02:29:47;11.38;;;4.85;;
26622;SDS011;14254;50.968;5.366;2022-11-27T02:32:42;13.95;;;4.53;;
26622;SDS011;14254;50.968;5.366;2022-11-27T02:38:14;14.07;;;5.22;;
26622;SDS011;14254;50.968;5.366;2022-11-27T02:40:56;12.65;;;4.18;;
26622;SDS011;14254;50.968;5.366;2022-11-27T02:43:29;12.30;;;4.18;;
26622;SDS011;14254;50.968;5.366;2022-11-27T02:46:00;7.67;;;2.90;;
26622;SDS011;14254;50.968;5.366;2022-11-27T02:48:32;8.52;;;3.90;;
26622;SDS011;14254;50.968;5.366;2022-11-27T02:51:02;11.25;;;4.35;;
26622;SDS011;14254;50.968;5.366;2022-11-27T02:53:31;8.07;;;3.40;;
26622;SDS011;14254;50.968;5.366;2022-11-27T02:56:02;8.25;;;3.75;;
26622;SDS011;14254;50.968;5.366;2022-11-27T02:58:33;9.25;;;3.67;;
26622;SDS011;14254;50.968;5.366;2022-11-27T03:01:01;10.60;;;3.50;;
26622;SDS011;14254;50.968;5.366;2022-11-27T03:03:31;10.73;;;3.20;;
26622;SDS011;14254;50.968;5.366;2022-11-27T03:06:02;7.75;;;3.38;;
26622;SDS011;14254;50.968;5.366;2022-11-27T03:11:06;8.05;;;3.17;;
26622;SDS011;14254;50.968;5.366;2022-11-27T03:13:36;8.23;;;3.90;;
26622;SDS011;14254;50.968;5.366;2022-11-27T03:19:16;6.55;;;3.20;;
26622;SDS011;14254;50.968;5.366;2022-11-27T03:21:44;4.75;;;2.58;;
26622;SDS011;14254;50.968;5.366;2022-11-27T03:24:14;13.02;;;3.95;;
26622;SDS011;14254;50.968;5.366;2022-11-27T03:26:40;6.22;;;3.13;;
26622;SDS011;14254;50.968;5.366;2022-11-27T03:29:09;8.85;;;3.83;;
26622;SDS011;14254;50.968;5.366;2022-11-27T03:31:47;10.32;;;3.15;;
26622;SDS011;14254;50.968;5.366;2022-11-27T03:34:13;7.07;;;2.97;;
26622;SDS011;14254;50.968;5.366;2022-11-27T03:36:40;7.55;;;2.60;;
26622;SDS011;14254;50.968;5.366;2022-11-27T03:39:06;5.68;;;2.58;;
26622;SDS011;14254;50.968;5.366;2022-11-27T03:44:31;4.40;;;2.67;;
26622;SDS011;14254;50.968;5.366;2022-11-27T03:55:48;4.60;;;2.80;;
26622;SDS011;14254;50.968;5.366;2022-11-27T03:58:37;8.77;;;3.25;;
26622;SDS011;14254;50.968;5.366;2022-11-27T04:01:08;9.50;;;2.80;;
26622;SDS011;14254;50.968;5.366;2022-11-27T04:03:36;11.05;;;3.10;;
26622;SDS011;14254;50.968;5.366;2022-11-27T04:06:02;5.75;;;2.55;;
26622;SDS011;14254;50.968;5.366;2022-11-27T04:08:28;8.65;;;2.95;;
26622;SDS011;14254;50.968;5.366;2022-11-27T04:10:54;12.32;;;3.35;;
26622;SDS011;14254;50.968;5.366;2022-11-27T04:13:21;6.28;;;2.33;;
26622;SDS011;14254;50.968;5.366;2022-11-27T04:15:46;5.43;;;2.55;;
26622;SDS011;14254;50.968;5.366;2022-11-27T04:18:12;10.00;;;2.78;;
26622;SDS011;14254;50.968;5.366;2022-11-27T04:20:38;6.72;;;2.75;;
26622;SDS011;14254;50.968;5.366;2022-11-27T04:23:04;3.97;;;2.58;;
26622;SDS011;14254;50.968;5.366;2022-11-27T04:25:29;10.00;;;3.08;;
26622;SDS011;14254;50.968;5.366;2022-11-27T04:27:55;12.93;;;3.22;;
26622;SDS011;14254;50.968;5.366;2022-11-27T04:30:21;6.03;;;2.80;;
26622;SDS011;14254;50.968;5.366;2022-11-27T04:32:46;14.85;;;3.50;;
26622;SDS011;14254;50.968;5.366;2022-11-27T04:35:12;10.27;;;3.28;;
26622;SDS011;14254;50.968;5.366;2022-11-27T04:37:38;9.30;;;3.45;;
26622;SDS011;14254;50.968;5.366;2022-11-27T04:40:04;9.82;;;3.30;;
26622;SDS011;14254;50.968;5.366;2022-11-27T04:42:30;8.00;;;3.30;;
26622;SDS011;14254;50.968;5.366;2022-11-27T04:44:56;10.93;;;3.65;;
26622;SDS011;14254;50.968;5.366;2022-11-27T04:47:21;14.07;;;5.03;;
26622;SDS011;14254;50.968;5.366;2022-11-27T04:49:47;10.98;;;3.55;;
26622;SDS011;14254;50.968;5.366;2022-11-27T04:52:13;11.75;;;3.80;;
26622;SDS011;14254;50.968;5.366;2022-11-27T04:54:38;8.02;;;3.22;;
26622;SDS011;14254;50.968;5.366;2022-11-27T04:57:04;8.57;;;3.67;;
26622;SDS011;14254;50.968;5.366;2022-11-27T04:59:30;7.65;;;3.17;;
26622;SDS011;14254;50.968;5.366;2022-11-27T05:01:56;14.55;;;3.88;;
26622;SDS011;14254;50.968;5.366;2022-11-27T05:04:22;13.27;;;4.32;;
26622;SDS011;14254;50.968;5.366;2022-11-27T05:06:48;9.85;;;4.38;;
26622;SDS011;14254;50.968;5.366;2022-11-27T05:09:15;9.68;;;4.03;;
26622;SDS011;14254;50.968;5.366;2022-11-27T05:11:42;10.60;;;3.85;;
26622;SDS011;14254;50.968;5.366;2022-11-27T05:14:08;12.23;;;3.85;;
26622;SDS011;14254;50.968;5.366;2022-11-27T05:16:45;13.52;;;4.22;;
26622;SDS011;14254;50.968;5.366;2022-11-27T05:21:39;7.97;;;3.85;;
26622;SDS011;14254;50.968;5.366;2022-11-27T05:24:05;9.60;;;3.67;;
26622;SDS011;14254;50.968;5.366;2022-11-27T05:26:32;10.30;;;4.32;;
26622;SDS011;14254;50.968;5.366;2022-11-27T05:28:58;11.65;;;4.30;;
26622;SDS011;14254;50.968;5.366;2022-11-27T05:31:23;10.13;;;3.88;;
26622;SDS011;14254;50.968;5.366;2022-11-27T05:33:49;10.40;;;4.25;;
26622;SDS011;14254;50.968;5.366;2022-11-27T05:36:15;6.50;;;3.70;;
26622;SDS011;14254;50.968;5.366;2022-11-27T05:38:40;10.60;;;4.38;;
26622;SDS011;14254;50.968;5.366;2022-11-27T05:41:06;12.35;;;4.75;;
26622;SDS011;14254;50.968;5.366;2022-11-27T05:43:32;8.02;;;3.63;;
26622;SDS011;14254;50.968;5.366;2022-11-27T05:45:57;13.20;;;3.95;;
26622;SDS011;14254;50.968;5.366;2022-11-27T05:48:23;14.15;;;4.50;;
26622;SDS011;14254;50.968;5.366;2022-11-27T05:50:49;11.07;;;4.45;;
26622;SDS011;14254;50.968;5.366;2022-11-27T05:53:14;10.77;;;4.13;;
26622;SDS011;14254;50.968;5.366;2022-11-27T05:55:40;8.10;;;3.80;;
26622;SDS011;14254;50.968;5.366;2022-11-27T05:58:05;13.15;;;5.47;;
26622;SDS011;14254;50.968;5.366;2022-11-27T06:00:31;10.60;;;4.18;;
26622;SDS011;14254;50.968;5.366;2022-11-27T06:02:57;11.57;;;4.70;;
26622;SDS011;14254;50.968;5.366;2022-11-27T06:05:22;10.10;;;3.90;;
26622;SDS011;14254;50.968;5.366;2022-11-27T06:07:48;6.65;;;3.65;;
26622;SDS011;14254;50.968;5.366;2022-11-27T06:10:14;7.88;;;3.72;;
26622;SDS011;14254;50.968;5.366;2022-11-27T06:12:39;9.25;;;3.47;;
26622;SDS011;14254;50.968;5.366;2022-11-27T06:15:06;8.07;;;3.80;;
26622;SDS011;14254;50.968;5.366;2022-11-27T06:17:32;13.05;;;5.00;;
26622;SDS011;14254;50.968;5.366;2022-11-27T06:19:57;9.77;;;3.85;;
26622;SDS011;14254;50.968;5.366;2022-11-27T06:22:23;8.98;;;3.92;;
26622;SDS011;14254;50.968;5.366;2022-11-27T06:24:49;7.82;;;4.13;;
26622;SDS011;14254;50.968;5.366;2022-11-27T06:27:14;9.90;;;4.13;;
26622;SDS011;14254;50.968;5.366;2022-11-27T06:29:40;10.00;;;4.47;;
26622;SDS011;14254;50.968;5.366;2022-11-27T06:32:06;12.52;;;4.00;;
26622;SDS011;14254;50.968;5.366;2022-11-27T06:34:31;8.02;;;3.70;;
26622;SDS011;14254;50.968;5.366;2022-11-27T06:36:57;9.70;;;3.53;;
26622;SDS011;14254;50.968;5.366;2022-11-27T06:39:23;11.57;;;3.95;;
26622;SDS011;14254;50.968;5.366;2022-11-27T06:41:48;14.85;;;4.57;;
26622;SDS011;14254;50.968;5.366;2022-11-27T06:44:14;9.52;;;4.00;;
26622;SDS011;14254;50.968;5.366;2022-11-27T06:46:39;10.70;;;4.50;;
26622;SDS011;14254;50.968;5.366;2022-11-27T06:49:05;8.30;;;4.40;;
26622;SDS011;14254;50.968;5.366;2022-11-27T06:51:31;10.00;;;4.60;;
26622;SDS011;14254;50.968;5.366;2022-11-27T06:54:00;7.30;;;4.38;;
26622;SDS011;14254;50.968;5.366;2022-11-27T06:56:27;10.57;;;4.65;;
26622;SDS011;14254;50.968;5.366;2022-11-27T06:58:54;14.07;;;4.30;;
26622;SDS011;14254;50.968;5.366;2022-11-27T07:01:22;10.93;;;4.38;;
26622;SDS011;14254;50.968;5.366;2022-11-27T07:03:49;9.07;;;4.15;;
26622;SDS011;14254;50.968;5.366;2022-11-27T07:06:17;11.90;;;4.43;;
26622;SDS011;14254;50.968;5.366;2022-11-27T07:08:47;8.20;;;5.32;;
26622;SDS011;14254;50.968;5.366;2022-11-27T07:11:14;11.05;;;4.80;;
26622;SDS011;14254;50.968;5.366;2022-11-27T07:13:47;11.85;;;4.78;;
26622;SDS011;14254;50.968;5.366;2022-11-27T07:16:14;11.23;;;5.10;;
26622;SDS011;14254;50.968;5.366;2022-11-27T07:18:42;8.25;;;5.05;;
26622;SDS011;14254;50.968;5.366;2022-11-27T07:21:09;15.07;;;5.47;;
26622;SDS011;14254;50.968;5.366;2022-11-27T07:23:35;12.63;;;5.25;;
26622;SDS011;14254;50.968;5.366;2022-11-27T07:26:05;11.40;;;5.20;;
26622;SDS011;14254;50.968;5.366;2022-11-27T07:28:32;15.80;;;5.80;;
26622;SDS011;14254;50.968;5.366;2022-11-27T07:30:57;8.23;;;4.97;;
26622;SDS011;14254;50.968;5.366;2022-11-27T07:33:24;13.38;;;6.22;;
26622;SDS011;14254;50.968;5.366;2022-11-27T07:35:50;16.60;;;5.70;;
26622;SDS011;14254;50.968;5.366;2022-11-27T07:38:23;11.77;;;5.82;;
26622;SDS011;14254;50.968;5.366;2022-11-27T07:40:48;11.82;;;6.05;;
26622;SDS011;14254;50.968;5.366;2022-11-27T07:43:14;13.57;;;6.10;;
26622;SDS011;14254;50.968;5.366;2022-11-27T07:45:39;16.08;;;7.13;;
26622;SDS011;14254;50.968;5.366;2022-11-27T07:48:05;12.52;;;6.38;;
26622;SDS011;14254;50.968;5.366;2022-11-27T07:50:31;16.50;;;6.88;;
26622;SDS011;14254;50.968;5.366;2022-11-27T07:52:57;13.18;;;6.20;;
26622;SDS011;14254;50.968;5.366;2022-11-27T07:55:23;14.35;;;6.80;;
26622;SDS011;14254;50.968;5.366;2022-11-27T07:57:48;14.75;;;6.70;;
26622;SDS011;14254;50.968;5.366;2022-11-27T08:00:14;13.95;;;6.93;;
26622;SDS011;14254;50.968;5.366;2022-11-27T08:02:40;17.48;;;7.05;;
26622;SDS011;14254;50.968;5.366;2022-11-27T08:05:06;14.80;;;7.68;;
26622;SDS011;14254;50.968;5.366;2022-11-27T08:07:32;16.33;;;7.60;;
26622;SDS011;14254;50.968;5.366;2022-11-27T08:09:57;21.85;;;7.78;;
26622;SDS011;14254;50.968;5.366;2022-11-27T08:12:23;16.63;;;8.23;;
26622;SDS011;14254;50.968;5.366;2022-11-27T08:14:49;16.00;;;8.07;;
26622;SDS011;14254;50.968;5.366;2022-11-27T08:17:16;19.95;;;7.88;;
26622;SDS011;14254;50.968;5.366;2022-11-27T08:19:42;17.38;;;7.97;;
26622;SDS011;14254;50.968;5.366;2022-11-27T08:22:15;17.50;;;7.78;;
26622;SDS011;14254;50.968;5.366;2022-11-27T08:24:43;15.35;;;8.88;;
26622;SDS011;14254;50.968;5.366;2022-11-27T08:27:09;14.57;;;7.65;;
26622;SDS011;14254;50.968;5.366;2022-11-27T08:29:35;16.30;;;7.57;;
26622;SDS011;14254;50.968;5.366;2022-11-27T08:32:01;19.38;;;7.60;;
26622;SDS011;14254;50.968;5.366;2022-11-27T08:34:27;17.73;;;7.50;;
26622;SDS011;14254;50.968;5.366;2022-11-27T08:36:53;13.57;;;6.95;;
26622;SDS011;14254;50.968;5.366;2022-11-27T08:39:19;11.25;;;7.43;;
26622;SDS011;14254;50.968;5.366;2022-11-27T08:41:44;17.65;;;7.55;;
26622;SDS011;14254;50.968;5.366;2022-11-27T08:44:10;17.05;;;7.10;;
26622;SDS011;14254;50.968;5.366;2022-11-27T08:46:36;17.20;;;8.07;;
26622;SDS011;14254;50.968;5.366;2022-11-27T08:49:02;15.88;;;8.07;;
26622;SDS011;14254;50.968;5.366;2022-11-27T08:51:28;18.13;;;7.93;;
26622;SDS011;14254;50.968;5.366;2022-11-27T08:53:54;15.43;;;7.53;;
26622;SDS011;14254;50.968;5.366;2022-11-27T08:56:21;13.40;;;6.72;;
26622;SDS011;14254;50.968;5.366;2022-11-27T08:58:48;18.92;;;8.20;;
26622;SDS011;14254;50.968;5.366;2022-11-27T09:01:18;20.35;;;7.22;;
26622;SDS011;14254;50.968;5.366;2022-11-27T09:03:44;15.07;;;8.07;;
26622;SDS011;14254;50.968;5.366;2022-11-27T09:06:11;18.38;;;7.22;;
26622;SDS011;14254;50.968;5.366;2022-11-27T09:08:42;14.50;;;7.18;;
26622;SDS011;14254;50.968;5.366;2022-11-27T09:11:08;15.05;;;7.40;;
26622;SDS011;14254;50.968;5.366;2022-11-27T09:13:35;13.02;;;7.43;;
26622;SDS011;14254;50.968;5.366;2022-11-27T09:16:05;16.00;;;6.80;;
26622;SDS011;14254;50.968;5.366;2022-11-27T09:18:33;11.02;;;6.68;;
26622;SDS011;14254;50.968;5.366;2022-11-27T09:21:00;10.88;;;6.30;;
26622;SDS011;14254;50.968;5.366;2022-11-27T09:23:27;11.77;;;7.03;;
26622;SDS011;14254;50.968;5.366;2022-11-27T09:25:56;17.75;;;6.82;;
26622;SDS011;14254;50.968;5.366;2022-11-27T09:28:26;15.23;;;7.20;;
26622;SDS011;14254;50.968;5.366;2022-11-27T09:30:55;12.02;;;5.90;;
26622;SDS011;14254;50.968;5.366;2022-11-27T09:33:22;11.85;;;6.80;;
26622;SDS011;14254;50.968;5.366;2022-11-27T09:35:49;10.57;;;6.30;;
26622;SDS011;14254;50.968;5.366;2022-11-27T09:38:15;9.45;;;6.25;;
26622;SDS011;14254;50.968;5.366;2022-11-27T09:40:47;13.57;;;6.07;;
26622;SDS011;14254;50.968;5.366;2022-11-27T09:43:14;13.48;;;6.28;;
26622;SDS011;14254;50.968;5.366;2022-11-27T09:45:46;10.90;;;5.93;;
26622;SDS011;14254;50.968;5.366;2022-11-27T09:48:18;13.13;;;6.32;;
26622;SDS011;14254;50.968;5.366;2022-11-27T09:50:49;13.93;;;7.20;;
26622;SDS011;14254;50.968;5.366;2022-11-27T09:55:52;14.63;;;8.07;;
26622;SDS011;14254;50.968;5.366;2022-11-27T09:58:38;14.93;;;7.13;;
26622;SDS011;14254;50.968;5.366;2022-11-27T10:03:35;11.75;;;7.25;;
26622;SDS011;14254;50.968;5.366;2022-11-27T10:11:26;15.82;;;8.05;;
26622;SDS011;14254;50.968;5.366;2022-11-27T10:17:04;12.10;;;6.47;;
26622;SDS011;14254;50.968;5.366;2022-11-27T10:22:27;20.23;;;8.60;;
26622;SDS011;14254;50.968;5.366;2022-11-27T10:25:24;10.32;;;7.25;;
26622;SDS011;14254;50.968;5.366;2022-11-27T10:30:45;11.30;;;7.35;;
26622;SDS011;14254;50.968;5.366;2022-11-27T10:33:50;18.58;;;7.55;;
26622;SDS011;14254;50.968;5.366;2022-11-27T10:36:17;11.05;;;7.15;;
26622;SDS011;14254;50.968;5.366;2022-11-27T10:38:51;14.65;;;7.40;;
26622;SDS011;14254;50.968;5.366;2022-11-27T10:41:29;13.43;;;7.28;;
26622;SDS011;14254;50.968;5.366;2022-11-27T10:46:45;13.27;;;7.88;;
26622;SDS011;14254;50.968;5.366;2022-11-27T10:49:12;13.20;;;7.72;;
26622;SDS011;14254;50.968;5.366;2022-11-27T10:51:38;16.33;;;7.18;;
26622;SDS011;14254;50.968;5.366;2022-11-27T10:54:06;12.82;;;7.28;;
26622;SDS011;14254;50.968;5.366;2022-11-27T10:59:20;13.23;;;7.60;;
26622;SDS011;14254;50.968;5.366;2022-11-27T11:01:57;15.32;;;8.23;;
26622;SDS011;14254;50.968;5.366;2022-11-27T11:04:25;15.27;;;8.45;;
26622;SDS011;14254;50.968;5.366;2022-11-27T11:06:55;14.52;;;7.88;;
26622;SDS011;14254;50.968;5.366;2022-11-27T11:09:28;15.63;;;8.25;;
26622;SDS011;14254;50.968;5.366;2022-11-27T11:12:05;14.57;;;7.57;;
26622;SDS011;14254;50.968;5.366;2022-11-27T11:14:32;10.68;;;7.15;;
26622;SDS011;14254;50.968;5.366;2022-11-27T11:16:58;9.95;;;7.10;;
26622;SDS011;14254;50.968;5.366;2022-11-27T11:19:33;13.98;;;7.18;;
26622;SDS011;14254;50.968;5.366;2022-11-27T11:22:10;13.07;;;7.40;;
26622;SDS011;14254;50.968;5.366;2022-11-27T11:24:38;14.25;;;7.72;;
26622;SDS011;14254;50.968;5.366;2022-11-27T11:27:13;12.25;;;7.10;;
26622;SDS011;14254;50.968;5.366;2022-11-27T11:32:34;11.70;;;7.05;;
26622;SDS011;14254;50.968;5.366;2022-11-27T11:35:09;15.00;;;6.95;;
26622;SDS011;14254;50.968;5.366;2022-11-27T11:37:48;12.77;;;7.90;;
26622;SDS011;14254;50.968;5.366;2022-11-27T11:43:20;11.70;;;7.38;;
26622;SDS011;14254;50.968;5.366;2022-11-27T11:45:48;12.68;;;7.45;;
26622;SDS011;14254;50.968;5.366;2022-11-27T11:48:19;15.90;;;7.47;;
26622;SDS011;14254;50.968;5.366;2022-11-27T11:53:35;16.13;;;6.47;;
26622;SDS011;14254;50.968;5.366;2022-11-27T11:58:58;13.48;;;8.23;;
26622;SDS011;14254;50.968;5.366;2022-11-27T12:12:45;13.70;;;6.93;;
26622;SDS011;14254;50.968;5.366;2022-11-27T12:15:30;10.43;;;5.72;;
26622;SDS011;14254;50.968;5.366;2022-11-27T12:18:16;10.18;;;6.38;;
26622;SDS011;14254;50.968;5.366;2022-11-27T12:24:35;10.35;;;5.70;;
26622;SDS011;14254;50.968;5.366;2022-11-27T12:27:11;11.20;;;5.55;;
26622;SDS011;14254;50.968;5.366;2022-11-27T12:35:50;10.05;;;6.47;;
26622;SDS011;14254;50.968;5.366;2022-11-27T12:44:16;13.45;;;6.65;;
26622;SDS011;14254;50.968;5.366;2022-11-27T12:46:50;11.23;;;6.20;;
26622;SDS011;14254;50.968;5.366;2022-11-27T12:49:41;11.97;;;6.17;;
26622;SDS011;14254;50.968;5.366;2022-11-27T12:52:18;12.52;;;6.10;;
26622;SDS011;14254;50.968;5.366;2022-11-27T12:54:57;11.73;;;6.40;;
26622;SDS011;14254;50.968;5.366;2022-11-27T12:57:53;10.45;;;6.25;;
26622;SDS011;14254;50.968;5.366;2022-11-27T13:00:30;12.73;;;6.13;;
26622;SDS011;14254;50.968;5.366;2022-11-27T13:03:05;10.00;;;6.03;;
26622;SDS011;14254;50.968;5.366;2022-11-27T13:05:48;11.93;;;6.50;;
26622;SDS011;14254;50.968;5.366;2022-11-27T13:11:32;8.45;;;5.63;;
26622;SDS011;14254;50.968;5.366;2022-11-27T13:16:40;10.80;;;6.13;;
26622;SDS011;14254;50.968;5.366;2022-11-27T13:21:39;10.90;;;6.43;;
26622;SDS011;14254;50.968;5.366;2022-11-27T13:24:08;12.40;;;5.65;;
26622;SDS011;14254;50.968;5.366;2022-11-27T13:32:26;8.85;;;5.90;;
26622;SDS011;14254;50.968;5.366;2022-11-27T13:34:56;9.73;;;6.00;;
26622;SDS011;14254;50.968;5.366;2022-11-27T13:37:34;12.88;;;6.05;;
26622;SDS011;14254;50.968;5.366;2022-11-27T13:40:04;9.00;;;6.30;;
26622;SDS011;14254;50.968;5.366;2022-11-27T13:42:44;11.70;;;6.63;;
26622;SDS011;14254;50.968;5.366;2022-11-27T13:47:50;14.20;;;6.35;;
26622;SDS011;14254;50.968;5.366;2022-11-27T13:50:17;7.95;;;5.43;;
26622;SDS011;14254;50.968;5.366;2022-11-27T13:52:53;13.38;;;5.90;;
26622;SDS011;14254;50.968;5.366;2022-11-27T13:57:57;13.10;;;6.40;;
26622;SDS011;14254;50.968;5.366;2022-11-27T14:00:35;10.07;;;5.60;;
26622;SDS011;14254;50.968;5.366;2022-11-27T14:03:04;10.40;;;5.72;;
26622;SDS011;14254;50.968;5.366;2022-11-27T14:05:34;15.85;;;6.40;;
26622;SDS011;14254;50.968;5.366;2022-11-27T14:08:14;10.88;;;6.63;;
26622;SDS011;14254;50.968;5.366;2022-11-27T14:10:52;10.63;;;6.45;;
26622;SDS011;14254;50.968;5.366;2022-11-27T14:13:43;13.13;;;6.15;;
26622;SDS011;14254;50.968;5.366;2022-11-27T14:18:57;10.45;;;6.45;;
26622;SDS011;14254;50.968;5.366;2022-11-27T14:21:29;12.73;;;7.25;;
26622;SDS011;14254;50.968;5.366;2022-11-27T14:26:59;10.85;;;6.45;;
26622;SDS011;14254;50.968;5.366;2022-11-27T14:29:30;13.48;;;7.32;;
26622;SDS011;14254;50.968;5.366;2022-11-27T14:32:00;14.35;;;7.25;;
26622;SDS011;14254;50.968;5.366;2022-11-27T14:34:30;10.70;;;7.03;;
26622;SDS011;14254;50.968;5.366;2022-11-27T14:36:57;13.07;;;7.03;;
26622;SDS011;14254;50.968;5.366;2022-11-27T14:39:26;14.20;;;7.68;;
26622;SDS011;14254;50.968;5.366;2022-11-27T14:42:03;14.25;;;8.20;;
26622;SDS011;14254;50.968;5.366;2022-11-27T14:44:42;11.82;;;7.20;;
26622;SDS011;14254;50.968;5.366;2022-11-27T14:47:14;15.25;;;7.95;;
26622;SDS011;14254;50.968;5.366;2022-11-27T14:49:43;14.02;;;8.38;;
26622;SDS011;14254;50.968;5.366;2022-11-27T14:52:13;14.23;;;8.40;;
26622;SDS011;14254;50.968;5.366;2022-11-27T14:54:40;14.35;;;7.95;;
26622;SDS011;14254;50.968;5.366;2022-11-27T14:57:29;14.38;;;8.43;;
26622;SDS011;14254;50.968;5.366;2022-11-27T15:00:03;19.00;;;8.50;;
26622;SDS011;14254;50.968;5.366;2022-11-27T15:02:36;15.77;;;8.77;;
26622;SDS011;14254;50.968;5.366;2022-11-27T15:05:03;22.23;;;8.73;;
26622;SDS011;14254;50.968;5.366;2022-11-27T15:07:30;14.65;;;8.25;;
26622;SDS011;14254;50.968;5.366;2022-11-27T15:09:58;16.15;;;8.43;;
26622;SDS011;14254;50.968;5.366;2022-11-27T15:12:28;16.13;;;8.85;;
26622;SDS011;14254;50.968;5.366;2022-11-27T15:15:00;17.63;;;9.50;;
26622;SDS011;14254;50.968;5.366;2022-11-27T15:17:33;17.35;;;8.95;;
26622;SDS011;14254;50.968;5.366;2022-11-27T15:20:01;15.40;;;8.82;;
26622;SDS011;14254;50.968;5.366;2022-11-27T15:22:35;17.35;;;9.70;;
26622;SDS011;14254;50.968;5.366;2022-11-27T15:25:03;17.40;;;9.18;;
26622;SDS011;14254;50.968;5.366;2022-11-27T15:27:31;20.35;;;9.57;;
26622;SDS011;14254;50.968;5.366;2022-11-27T15:30:09;15.10;;;8.57;;
26622;SDS011;14254;50.968;5.366;2022-11-27T15:32:45;13.50;;;9.07;;
26622;SDS011;14254;50.968;5.366;2022-11-27T15:35:23;16.42;;;8.88;;
26622;SDS011;14254;50.968;5.366;2022-11-27T15:37:54;14.98;;;8.43;;
26622;SDS011;14254;50.968;5.366;2022-11-27T15:42:55;15.68;;;8.82;;
26622;SDS011;14254;50.968;5.366;2022-11-27T15:45:21;17.08;;;10.48;;
26622;SDS011;14254;50.968;5.366;2022-11-27T15:47:47;24.95;;;10.55;;
26622;SDS011;14254;50.968;5.366;2022-11-27T15:50:13;15.70;;;8.80;;
26622;SDS011;14254;50.968;5.366;2022-11-27T15:52:40;21.45;;;9.23;;
26622;SDS011;14254;50.968;5.366;2022-11-27T15:55:05;15.57;;;8.75;;
26622;SDS011;14254;50.968;5.366;2022-11-27T15:57:32;18.48;;;9.90;;
26622;SDS011;14254;50.968;5.366;2022-11-27T15:59:57;21.58;;;10.10;;
26622;SDS011;14254;50.968;5.366;2022-11-27T16:02:23;14.25;;;8.75;;
26622;SDS011;14254;50.968;5.366;2022-11-27T16:04:52;25.27;;;9.85;;
26622;SDS011;14254;50.968;5.366;2022-11-27T16:07:18;17.52;;;9.90;;
26622;SDS011;14254;50.968;5.366;2022-11-27T16:09:43;16.33;;;9.63;;
26622;SDS011;14254;50.968;5.366;2022-11-27T16:12:10;18.13;;;9.32;;
26622;SDS011;14254;50.968;5.366;2022-11-27T16:14:36;16.05;;;9.38;;
26622;SDS011;14254;50.968;5.366;2022-11-27T16:17:01;12.38;;;8.50;;
26622;SDS011;14254;50.968;5.366;2022-11-27T16:19:27;20.10;;;10.13;;
26622;SDS011;14254;50.968;5.366;2022-11-27T16:21:54;16.67;;;8.43;;
26622;SDS011;14254;50.968;5.366;2022-11-27T16:24:20;13.05;;;8.93;;
26622;SDS011;14254;50.968;5.366;2022-11-27T16:26:46;15.70;;;8.98;;
26622;SDS011;14254;50.968;5.366;2022-11-27T16:29:12;14.95;;;8.88;;
26622;SDS011;14254;50.968;5.366;2022-11-27T16:31:38;16.50;;;8.50;;
26622;SDS011;14254;50.968;5.366;2022-11-27T16:34:04;16.73;;;8.88;;
26622;SDS011;14254;50.968;5.366;2022-11-27T16:36:31;17.50;;;8.63;;
26622;SDS011;14254;50.968;5.366;2022-11-27T16:38:56;14.70;;;8.63;;
26622;SDS011;14254;50.968;5.366;2022-11-27T16:41:22;16.05;;;9.25;;
26622;SDS011;14254;50.968;5.366;2022-11-27T16:43:49;11.25;;;7.47;;
26622;SDS011;14254;50.968;5.366;2022-11-27T16:46:20;14.82;;;9.77;;
26622;SDS011;14254;50.968;5.366;2022-11-27T16:48:48;14.75;;;8.85;;
26622;SDS011;14254;50.968;5.366;2022-11-27T16:51:15;13.93;;;8.32;;